createdAt,value
2018-09-29T00:00:46.991Z,0.00
2018-09-29T00:01:47.016Z,0.00
2018-09-29T00:02:47.031Z,0.00
2018-09-29T00:03:47.044Z,0.00
2018-09-29T00:04:47.060Z,0.00
2018-09-29T00:05:47.071Z,0.00
2018-09-29T00:06:47.085Z,0.00
2018-09-29T00:07:47.098Z,0.00
2018-09-29T00:08:47.112Z,0.00
2018-09-29T00:09:47.125Z,0.00
2018-09-29T00:10:47.138Z,0.00
2018-09-29T00:11:47.165Z,0.00
2018-09-29T00:12:47.178Z,0.00
2018-09-29T00:13:47.195Z,0.00
2018-09-29T00:14:47.204Z,0.00
2018-09-29T00:15:47.218Z,0.00
2018-09-29T00:16:47.233Z,0.00
2018-09-29T00:17:47.245Z,0.00
2018-09-29T00:18:47.259Z,0.00
2018-09-29T00:19:47.273Z,0.00
2018-09-29T00:20:47.537Z,0.00
2018-09-29T00:21:47.301Z,0.00
2018-09-29T00:22:47.326Z,0.00
2018-09-29T00:23:47.339Z,0.00
2018-09-29T00:24:47.353Z,0.00
2018-09-29T00:25:47.366Z,0.00
2018-09-29T00:26:47.380Z,0.00
2018-09-29T00:27:47.393Z,0.00
2018-09-29T00:28:47.406Z,0.00
2018-09-29T00:29:47.420Z,0.00
2018-09-29T00:30:47.435Z,0.00
2018-09-29T00:31:47.448Z,0.00
2018-09-29T00:32:47.460Z,0.00
2018-09-29T00:33:47.487Z,0.00
2018-09-29T00:34:47.500Z,0.00
2018-09-29T00:35:47.514Z,0.00
2018-09-29T00:36:47.527Z,0.00
2018-09-29T00:37:47.541Z,0.00
2018-09-29T00:38:47.553Z,0.00
2018-09-29T00:39:47.572Z,0.00
2018-09-29T00:40:47.580Z,0.00
2018-09-29T00:41:47.594Z,0.00
2018-09-29T00:42:47.608Z,0.00
2018-09-29T00:43:47.622Z,0.00
2018-09-29T00:44:47.636Z,0.00
2018-09-29T00:45:47.673Z,0.00
2018-09-29T00:46:47.675Z,0.00
2018-09-29T00:47:47.688Z,0.00
2018-09-29T00:48:47.701Z,0.00
2018-09-29T00:49:47.716Z,0.00
2018-09-29T00:50:47.729Z,0.00
2018-09-29T00:51:47.741Z,0.00
2018-09-29T00:52:47.758Z,0.00
2018-09-29T00:53:47.768Z,0.00
2018-09-29T00:54:47.783Z,0.00
2018-09-29T00:55:47.796Z,0.00
2018-09-29T00:56:47.826Z,0.00
2018-09-29T00:57:47.836Z,0.00
2018-09-29T00:58:47.862Z,0.00
2018-09-29T00:59:47.866Z,0.00
2018-09-29T01:00:47.875Z,0.00
2018-09-29T01:01:47.890Z,0.00
2018-09-29T01:02:47.903Z,0.00
2018-09-29T01:03:47.918Z,0.00
2018-09-29T01:04:47.929Z,0.00
2018-09-29T01:05:47.947Z,0.00
2018-09-29T01:06:47.956Z,0.00
2018-09-29T01:07:47.971Z,0.00
2018-09-29T01:08:47.986Z,0.00
2018-09-29T01:09:48.010Z,0.00
2018-09-29T01:10:48.025Z,0.00
2018-09-29T01:11:48.037Z,0.00
2018-09-29T01:12:48.053Z,0.00
2018-09-29T01:13:48.064Z,0.00
2018-09-29T01:14:48.080Z,0.00
2018-09-29T01:15:48.092Z,0.00
2018-09-29T01:16:48.106Z,0.00
2018-09-29T01:17:48.131Z,0.00
2018-09-29T01:18:48.133Z,0.00
2018-09-29T01:19:48.145Z,0.00
2018-09-29T01:20:48.160Z,0.00
2018-09-29T01:21:48.185Z,0.00
2018-09-29T01:22:48.199Z,0.00
2018-09-29T01:23:48.212Z,0.00
2018-09-29T01:24:48.225Z,0.00
2018-09-29T01:25:48.240Z,0.00
2018-09-29T01:26:48.252Z,0.00
2018-09-29T01:27:48.266Z,0.00
2018-09-29T01:28:48.280Z,0.00
2018-09-29T01:29:48.293Z,0.00
2018-09-29T01:30:48.306Z,0.00
2018-09-29T01:31:48.323Z,0.00
2018-09-29T01:32:48.333Z,0.00
2018-09-29T01:33:48.347Z,0.00
2018-09-29T01:34:48.361Z,0.00
2018-09-29T01:35:48.386Z,0.00
2018-09-29T01:36:48.400Z,0.00
2018-09-29T01:37:48.413Z,0.00
2018-09-29T01:38:48.428Z,0.00
2018-09-29T01:39:48.441Z,0.00
2018-09-29T01:40:48.456Z,0.00
2018-09-29T01:41:48.468Z,0.00
2018-09-29T01:42:48.481Z,0.00
2018-09-29T01:43:48.495Z,0.00
2018-09-29T01:44:48.510Z,0.00
2018-09-29T01:45:48.521Z,0.00
2018-09-29T01:46:48.537Z,0.00
2018-09-29T01:47:48.548Z,0.00
2018-09-29T01:48:48.564Z,0.00
2018-09-29T01:49:48.581Z,0.00
2018-09-29T01:50:48.601Z,0.00
2018-09-29T01:51:48.616Z,0.00
2018-09-29T01:52:48.629Z,0.00
2018-09-29T01:53:48.644Z,0.00
2018-09-29T01:54:48.656Z,0.00
2018-09-29T01:55:48.672Z,0.00
2018-09-29T01:56:48.683Z,0.00
2018-09-29T01:57:48.697Z,0.00
2018-09-29T01:58:48.712Z,0.00
2018-09-29T01:59:48.723Z,0.00
2018-09-29T02:00:48.737Z,0.00
2018-09-29T02:01:48.750Z,0.00
2018-09-29T02:02:48.767Z,0.00
2018-09-29T02:03:48.778Z,0.00
2018-09-29T02:04:48.792Z,0.00
2018-09-29T02:05:48.806Z,0.00
2018-09-29T02:06:48.833Z,0.00
2018-09-29T02:07:48.870Z,0.00
2018-09-29T02:08:48.862Z,0.00
2018-09-29T02:09:48.870Z,0.00
2018-09-29T02:10:48.884Z,0.00
2018-09-29T02:11:48.899Z,0.00
2018-09-29T02:12:48.912Z,0.00
2018-09-29T02:13:48.925Z,0.00
2018-09-29T02:14:48.938Z,0.00
2018-09-29T02:15:48.955Z,0.00
2018-09-29T02:16:48.965Z,0.00
2018-09-29T02:17:48.978Z,0.00
2018-09-29T02:18:48.993Z,0.00
2018-09-29T02:19:49.006Z,0.00
2018-09-29T02:20:49.020Z,0.00
2018-09-29T02:21:49.032Z,0.00
2018-09-29T02:22:49.046Z,0.00
2018-09-29T02:23:49.073Z,0.00
2018-09-29T02:24:49.074Z,0.00
2018-09-29T02:25:49.088Z,0.00
2018-09-29T02:26:49.113Z,0.00
2018-09-29T02:27:49.115Z,0.00
2018-09-29T02:28:49.154Z,0.00
2018-09-29T02:29:49.156Z,0.00
2018-09-29T02:30:49.167Z,0.00
2018-09-29T02:31:49.182Z,0.00
2018-09-29T02:32:49.198Z,0.00
2018-09-29T02:33:49.209Z,0.00
2018-09-29T02:34:49.222Z,0.00
2018-09-29T02:35:49.236Z,0.00
2018-09-29T02:36:49.248Z,0.00
2018-09-29T02:37:49.262Z,0.00
2018-09-29T02:38:49.275Z,0.00
2018-09-29T02:39:49.288Z,0.00
2018-09-29T02:40:49.301Z,0.00
2018-09-29T02:41:49.316Z,0.00
2018-09-29T02:42:49.329Z,0.00
2018-09-29T02:43:49.348Z,0.00
2018-09-29T02:44:49.355Z,0.00
2018-09-29T02:45:49.371Z,0.00
2018-09-29T02:46:49.383Z,0.00
2018-09-29T02:47:49.398Z,0.00
2018-09-29T02:48:49.413Z,0.00
2018-09-29T02:49:49.425Z,0.00
2018-09-29T02:50:49.443Z,0.00
2018-09-29T02:51:49.452Z,0.00
2018-09-29T02:52:49.477Z,0.00
2018-09-29T02:53:49.492Z,0.00
2018-09-29T02:54:49.508Z,0.00
2018-09-29T02:55:49.530Z,0.00
2018-09-29T02:56:49.547Z,0.00
2018-09-29T02:57:49.558Z,0.00
2018-09-29T02:58:49.559Z,0.00
2018-09-29T02:59:49.576Z,0.00
2018-09-29T03:00:49.585Z,0.00
2018-09-29T03:01:49.600Z,0.00
2018-09-29T03:02:49.612Z,0.00
2018-09-29T03:03:49.625Z,0.00
2018-09-29T03:04:49.639Z,0.00
2018-09-29T03:05:49.652Z,0.00
2018-09-29T03:06:49.667Z,0.00
2018-09-29T03:07:49.679Z,0.00
2018-09-29T03:08:49.693Z,0.00
2018-09-29T03:09:49.707Z,0.00
2018-09-29T03:10:49.723Z,0.00
2018-09-29T03:11:49.734Z,0.00
2018-09-29T03:12:49.748Z,0.00
2018-09-29T03:13:49.760Z,0.00
2018-09-29T03:14:49.774Z,0.00
2018-09-29T03:15:49.788Z,0.00
2018-09-29T03:16:49.806Z,0.00
2018-09-29T03:17:49.814Z,0.00
2018-09-29T03:18:49.829Z,0.00
2018-09-29T03:19:49.841Z,0.00
2018-09-29T03:20:49.856Z,0.00
2018-09-29T03:21:49.869Z,0.00
2018-09-29T03:22:49.887Z,0.00
2018-09-29T03:23:49.896Z,0.00
2018-09-29T03:24:49.914Z,0.00
2018-09-29T03:25:49.923Z,0.00
2018-09-29T03:26:49.938Z,0.00
2018-09-29T03:27:49.951Z,0.00
2018-09-29T03:28:49.965Z,0.00
2018-09-29T03:29:49.978Z,0.00
2018-09-29T03:30:50.005Z,0.00
2018-09-29T03:31:50.212Z,0.00
2018-09-29T03:32:50.031Z,0.00
2018-09-29T03:33:50.045Z,0.00
2018-09-29T03:34:50.058Z,0.00
2018-09-29T03:35:50.072Z,0.00
2018-09-29T03:36:50.085Z,0.00
2018-09-29T03:37:50.098Z,0.00
2018-09-29T03:38:50.126Z,0.00
2018-09-29T03:39:50.126Z,0.00
2018-09-29T03:40:50.138Z,0.00
2018-09-29T03:41:50.152Z,0.00
2018-09-29T03:42:50.165Z,0.00
2018-09-29T03:43:50.180Z,0.00
2018-09-29T03:44:50.192Z,0.00
2018-09-29T03:45:50.206Z,0.00
2018-09-29T03:46:50.220Z,0.00
2018-09-29T03:47:50.236Z,0.00
2018-09-29T03:48:50.245Z,0.00
2018-09-29T03:49:50.260Z,0.00
2018-09-29T03:50:50.274Z,0.00
2018-09-29T03:51:50.287Z,0.00
2018-09-29T03:52:50.302Z,0.00
2018-09-29T03:53:50.319Z,0.00
2018-09-29T03:54:50.333Z,0.00
2018-09-29T03:55:50.341Z,0.00
2018-09-29T03:56:50.355Z,0.00
2018-09-29T03:57:50.368Z,0.00
2018-09-29T03:58:50.383Z,0.00
2018-09-29T03:59:50.396Z,0.00
2018-09-29T04:00:50.408Z,0.00
2018-09-29T04:01:50.423Z,0.00
2018-09-29T04:02:50.435Z,0.00
2018-09-29T04:03:50.450Z,0.00
2018-09-29T04:04:50.462Z,0.00
2018-09-29T04:05:50.477Z,0.00
2018-09-29T04:06:50.489Z,0.00
2018-09-29T04:07:50.504Z,0.00
2018-09-29T04:08:50.519Z,0.00
2018-09-29T04:09:50.535Z,0.00
2018-09-29T04:10:50.545Z,0.00
2018-09-29T04:11:50.560Z,0.00
2018-09-29T04:12:50.582Z,0.00
2018-09-29T04:13:50.606Z,0.00
2018-09-29T04:14:50.598Z,0.00
2018-09-29T04:15:50.611Z,0.00
2018-09-29T04:16:50.624Z,0.00
2018-09-29T04:17:50.638Z,0.00
2018-09-29T04:18:50.658Z,0.00
2018-09-29T04:19:50.665Z,0.00
2018-09-29T04:20:50.678Z,0.00
2018-09-29T04:21:50.691Z,0.00
2018-09-29T04:22:50.705Z,0.00
2018-09-29T04:23:50.720Z,0.00
2018-09-29T04:24:50.732Z,0.00
2018-09-29T04:25:50.746Z,0.00
2018-09-29T04:26:50.759Z,0.00
2018-09-29T04:27:50.773Z,0.00
2018-09-29T04:28:50.787Z,0.00
2018-09-29T04:29:50.800Z,0.00
2018-09-29T04:30:50.813Z,4.00
2018-09-29T04:31:50.827Z,4.00
2018-09-29T04:32:50.842Z,0.00
2018-09-29T04:33:50.855Z,4.00
2018-09-29T04:34:50.866Z,4.00
2018-09-29T04:35:50.882Z,4.00
2018-09-29T04:36:50.897Z,4.00
2018-09-29T04:37:50.909Z,4.00
2018-09-29T04:38:50.923Z,8.00
2018-09-29T04:39:50.935Z,8.00
2018-09-29T04:40:50.952Z,12.00
2018-09-29T04:41:50.962Z,12.00
2018-09-29T04:42:50.975Z,16.00
2018-09-29T04:43:50.979Z,20.00
2018-09-29T04:44:51.001Z,28.00
2018-09-29T04:45:51.004Z,28.00
2018-09-29T04:46:51.033Z,36.00
2018-09-29T04:47:51.031Z,44.00
2018-09-29T04:48:51.044Z,48.00
2018-09-29T04:49:51.070Z,56.00
2018-09-29T04:50:51.071Z,64.00
2018-09-29T04:51:51.084Z,76.00
2018-09-29T04:52:51.097Z,88.00
2018-09-29T04:53:51.111Z,96.00
2018-09-29T04:54:51.125Z,112.00
2018-09-29T04:55:51.139Z,128.00
2018-09-29T04:56:51.155Z,140.00
2018-09-29T04:57:51.165Z,160.00
2018-09-29T04:58:51.180Z,180.00
2018-09-29T04:59:51.192Z,196.00
2018-09-29T05:00:51.207Z,220.00
2018-09-29T05:01:51.221Z,248.00
2018-09-29T05:02:51.234Z,268.00
2018-09-29T05:03:51.260Z,296.00
2018-09-29T05:04:51.264Z,320.00
2018-09-29T05:05:51.274Z,352.00
2018-09-29T05:06:51.288Z,380.00
2018-09-29T05:07:51.304Z,408.00
2018-09-29T05:08:51.316Z,444.00
2018-09-29T05:09:51.328Z,472.00
2018-09-29T05:10:51.348Z,508.00
2018-09-29T05:11:51.355Z,544.00
2018-09-29T05:12:51.372Z,580.00
2018-09-29T05:13:51.392Z,612.00
2018-09-29T05:14:51.395Z,652.00
2018-09-29T05:15:51.409Z,684.00
2018-09-29T05:16:51.423Z,724.00
2018-09-29T05:17:51.448Z,764.00
2018-09-29T05:18:51.450Z,800.00
2018-09-29T05:19:51.463Z,840.00
2018-09-29T05:20:51.477Z,880.00
2018-09-29T05:21:51.490Z,916.00
2018-09-29T05:22:51.506Z,952.00
2018-09-29T05:23:51.517Z,992.00
2018-09-29T05:24:51.534Z,1028.00
2018-09-29T05:25:51.544Z,1072.00
2018-09-29T05:26:51.557Z,1108.00
2018-09-29T05:27:51.571Z,1144.00
2018-09-29T05:28:51.575Z,1180.00
2018-09-29T05:29:51.598Z,1220.00
2018-09-29T05:30:51.642Z,1256.00
2018-09-29T05:31:51.613Z,1292.00
2018-09-29T05:32:51.638Z,1332.00
2018-09-29T05:33:51.640Z,1368.00
2018-09-29T05:34:51.653Z,1400.00
2018-09-29T05:35:51.668Z,1436.00
2018-09-29T05:36:51.680Z,1472.00
2018-09-29T05:37:51.695Z,1504.00
2018-09-29T05:38:51.722Z,1540.00
2018-09-29T05:39:51.727Z,1572.00
2018-09-29T05:40:51.734Z,1604.00
2018-09-29T05:41:51.749Z,1636.00
2018-09-29T05:42:51.762Z,1672.00
2018-09-29T05:43:51.775Z,1700.00
2018-09-29T05:44:51.788Z,1732.00
2018-09-29T05:45:51.804Z,1760.00
2018-09-29T05:46:51.819Z,1788.00
2018-09-29T05:47:51.830Z,1816.00
2018-09-29T05:48:51.843Z,1840.00
2018-09-29T05:49:51.857Z,1868.00
2018-09-29T05:50:51.870Z,1896.00
2018-09-29T05:51:51.884Z,1928.00
2018-09-29T05:52:51.898Z,1956.00
2018-09-29T05:53:51.968Z,1984.00
2018-09-29T05:54:51.933Z,2008.00
2018-09-29T05:55:51.938Z,2036.00
2018-09-29T05:56:51.950Z,2060.00
2018-09-29T05:57:51.967Z,2084.00
2018-09-29T05:58:51.979Z,2108.00
2018-09-29T05:59:51.992Z,2132.00
2018-09-29T06:00:52.006Z,2160.00
2018-09-29T06:01:52.019Z,2188.00
2018-09-29T06:02:52.032Z,2208.00
2018-09-29T06:03:52.047Z,2232.00
2018-09-29T06:04:52.059Z,2252.00
2018-09-29T06:05:52.110Z,2276.00
2018-09-29T06:06:52.125Z,2292.00
2018-09-29T06:07:52.100Z,2320.00
2018-09-29T06:08:52.114Z,2340.00
2018-09-29T06:09:52.128Z,2360.00
2018-09-29T06:10:52.162Z,2384.00
2018-09-29T06:11:52.155Z,2404.00
2018-09-29T06:12:52.167Z,2424.00
2018-09-29T06:13:52.181Z,2444.00
2018-09-29T06:14:52.195Z,2460.00
2018-09-29T06:15:52.209Z,2480.00
2018-09-29T06:16:52.221Z,2492.00
2018-09-29T06:17:52.235Z,2512.00
2018-09-29T06:18:52.263Z,2532.00
2018-09-29T06:19:52.263Z,2552.00
2018-09-29T06:20:52.288Z,2568.00
2018-09-29T06:21:52.291Z,2588.00
2018-09-29T06:22:52.303Z,2608.00
2018-09-29T06:23:52.316Z,2624.00
2018-09-29T06:24:52.329Z,2640.00
2018-09-29T06:25:52.344Z,2660.00
2018-09-29T06:26:52.356Z,2680.00
2018-09-29T06:27:52.378Z,2696.00
2018-09-29T06:28:52.386Z,2708.00
2018-09-29T06:29:52.397Z,2724.00
2018-09-29T06:30:52.412Z,2744.00
2018-09-29T06:31:52.424Z,2760.00
2018-09-29T06:32:52.451Z,2776.00
2018-09-29T06:33:52.452Z,2796.00
2018-09-29T06:34:52.466Z,2816.00
2018-09-29T06:35:52.479Z,2832.00
2018-09-29T06:36:52.520Z,2844.00
2018-09-29T06:37:52.506Z,2856.00
2018-09-29T06:38:52.519Z,2872.00
2018-09-29T06:39:52.557Z,2888.00
2018-09-29T06:40:52.621Z,2904.00
2018-09-29T06:41:52.561Z,2924.00
2018-09-29T06:42:52.574Z,2936.00
2018-09-29T06:43:52.586Z,2956.00
2018-09-29T06:44:52.601Z,2972.00
2018-09-29T06:45:52.614Z,2984.00
2018-09-29T06:46:52.639Z,3000.00
2018-09-29T06:47:52.699Z,3020.00
2018-09-29T06:48:52.654Z,3032.00
2018-09-29T06:49:52.668Z,3044.00
2018-09-29T06:50:52.681Z,3056.00
2018-09-29T06:51:52.695Z,3072.00
2018-09-29T06:52:52.713Z,3084.00
2018-09-29T06:53:52.735Z,3092.00
2018-09-29T06:54:52.748Z,3108.00
2018-09-29T06:55:52.762Z,3124.00
2018-09-29T06:56:52.775Z,3132.00
2018-09-29T06:57:52.788Z,3148.00
2018-09-29T06:58:52.802Z,3160.00
2018-09-29T06:59:52.828Z,3164.00
2018-09-29T07:00:52.829Z,3180.00
2018-09-29T07:01:52.842Z,3192.00
2018-09-29T07:02:52.875Z,3200.00
2018-09-29T07:03:52.874Z,3212.00
2018-09-29T07:04:52.887Z,3224.00
2018-09-29T07:05:52.896Z,3232.00
2018-09-29T07:06:52.912Z,3236.00
2018-09-29T07:07:52.927Z,3244.00
2018-09-29T07:08:52.937Z,3252.00
2018-09-29T07:09:52.950Z,3272.00
2018-09-29T07:10:52.976Z,3288.00
2018-09-29T07:11:52.989Z,3388.00
2018-09-29T07:12:53.050Z,3728.00
2018-09-29T07:13:53.017Z,4048.00
2018-09-29T07:14:53.030Z,3532.00
2018-09-29T07:15:53.044Z,3300.00
2018-09-29T07:16:53.064Z,3304.00
2018-09-29T07:17:53.081Z,3312.00
2018-09-29T07:18:53.087Z,3316.00
2018-09-29T07:19:53.106Z,3340.00
2018-09-29T07:20:53.112Z,3344.00
2018-09-29T07:21:53.216Z,3364.00
2018-09-29T07:22:53.152Z,3352.00
2018-09-29T07:23:53.169Z,3352.00
2018-09-29T07:24:53.179Z,3364.00
2018-09-29T07:25:53.191Z,3372.00
2018-09-29T07:26:53.206Z,3376.00
2018-09-29T07:27:53.219Z,3384.00
2018-09-29T07:28:53.235Z,3392.00
2018-09-29T07:29:53.248Z,3404.00
2018-09-29T07:30:53.261Z,3408.00
2018-09-29T07:31:53.273Z,3412.00
2018-09-29T07:32:53.300Z,3420.00
2018-09-29T07:33:53.312Z,3424.00
2018-09-29T07:34:53.338Z,3432.00
2018-09-29T07:35:53.340Z,3444.00
2018-09-29T07:36:53.353Z,3448.00
2018-09-29T07:37:53.369Z,3460.00
2018-09-29T07:38:53.379Z,3472.00
2018-09-29T07:39:53.395Z,3476.00
2018-09-29T07:40:53.423Z,3480.00
2018-09-29T07:41:53.432Z,3484.00
2018-09-29T07:42:53.447Z,3492.00
2018-09-29T07:43:53.459Z,3496.00
2018-09-29T07:44:53.472Z,3496.00
2018-09-29T07:45:53.487Z,3500.00
2018-09-29T07:46:53.500Z,3508.00
2018-09-29T07:47:53.527Z,3520.00
2018-09-29T07:48:53.539Z,3524.00
2018-09-29T07:49:53.554Z,3528.00
2018-09-29T07:50:53.566Z,3536.00
2018-09-29T07:51:53.581Z,3544.00
2018-09-29T07:52:53.593Z,3552.00
2018-09-29T07:53:53.611Z,3552.00
2018-09-29T07:54:53.694Z,3556.00
2018-09-29T07:55:53.683Z,3564.00
2018-09-29T07:56:53.661Z,3572.00
2018-09-29T07:57:53.674Z,3576.00
2018-09-29T07:58:53.688Z,3580.00
2018-09-29T07:59:53.700Z,3592.00
2018-09-29T08:00:53.727Z,3592.00
2018-09-29T08:01:53.741Z,3596.00
2018-09-29T08:02:53.758Z,3596.00
2018-09-29T08:03:53.767Z,3592.00
2018-09-29T08:04:53.781Z,3592.00
2018-09-29T08:05:53.796Z,3592.00
2018-09-29T08:06:53.820Z,3592.00
2018-09-29T08:07:53.840Z,3596.00
2018-09-29T08:08:53.848Z,3600.00
2018-09-29T08:09:53.861Z,3604.00
2018-09-29T08:10:53.876Z,3612.00
2018-09-29T08:11:53.901Z,3608.00
2018-09-29T08:12:53.914Z,3608.00
2018-09-29T08:13:53.928Z,3616.00
2018-09-29T08:14:53.940Z,3624.00
2018-09-29T08:15:53.966Z,3628.00
2018-09-29T08:16:53.980Z,3632.00
2018-09-29T08:17:53.993Z,3636.00
2018-09-29T08:18:54.008Z,3640.00
2018-09-29T08:19:54.020Z,3644.00
2018-09-29T08:20:54.036Z,3644.00
2018-09-29T08:21:54.061Z,3652.00
2018-09-29T08:22:54.074Z,3652.00
2018-09-29T08:23:54.088Z,3656.00
2018-09-29T08:24:54.101Z,3660.00
2018-09-29T08:25:54.127Z,3664.00
2018-09-29T08:26:54.141Z,3660.00
2018-09-29T08:27:54.153Z,3664.00
2018-09-29T08:28:54.168Z,3664.00
2018-09-29T08:29:54.194Z,3672.00
2018-09-29T08:30:54.207Z,3672.00
2018-09-29T08:31:54.221Z,3684.00
2018-09-29T08:32:54.234Z,3692.00
2018-09-29T08:33:54.248Z,3700.00
2018-09-29T08:34:54.280Z,3704.00
2018-09-29T08:35:54.288Z,3716.00
2018-09-29T08:36:54.301Z,3720.00
2018-09-29T08:37:54.394Z,3724.00
2018-09-29T08:38:54.340Z,3728.00
2018-09-29T08:39:54.353Z,3728.00
2018-09-29T08:40:54.367Z,3728.00
2018-09-29T08:41:54.381Z,3732.00
2018-09-29T08:42:54.409Z,3732.00
2018-09-29T08:43:54.420Z,3732.00
2018-09-29T08:44:54.438Z,3732.00
2018-09-29T08:45:54.447Z,3732.00
2018-09-29T08:46:54.473Z,3732.00
2018-09-29T08:47:54.487Z,3736.00
2018-09-29T08:48:54.500Z,3740.00
2018-09-29T08:49:54.527Z,3744.00
2018-09-29T08:50:54.540Z,3748.00
2018-09-29T08:51:54.553Z,3748.00
2018-09-29T08:52:54.568Z,3752.00
2018-09-29T08:53:54.606Z,3764.00
2018-09-29T08:54:54.608Z,3776.00
2018-09-29T08:55:54.620Z,3792.00
2018-09-29T08:56:54.646Z,3796.00
2018-09-29T08:57:54.660Z,3808.00
2018-09-29T08:58:54.673Z,3808.00
2018-09-29T08:59:54.686Z,3816.00
2018-09-29T09:00:54.712Z,3832.00
2018-09-29T09:01:54.726Z,3880.00
2018-09-29T09:02:54.741Z,3912.00
2018-09-29T09:03:54.777Z,3920.00
2018-09-29T09:04:54.779Z,3880.00
2018-09-29T09:05:54.792Z,3852.00
2018-09-29T09:06:54.819Z,3840.00
2018-09-29T09:07:54.832Z,3872.00
2018-09-29T09:08:54.846Z,3944.00
2018-09-29T09:09:54.871Z,4104.00
2018-09-29T09:10:54.885Z,4172.00
2018-09-29T09:11:54.899Z,4100.00
2018-09-29T09:12:54.912Z,4076.00
2018-09-29T09:13:54.939Z,4160.00
2018-09-29T09:14:54.951Z,4384.00
2018-09-29T09:15:54.966Z,4748.00
2018-09-29T09:16:55.049Z,4836.00
2018-09-29T09:17:55.005Z,4724.00
2018-09-29T09:18:55.019Z,4572.00
2018-09-29T09:19:55.046Z,4464.00
2018-09-29T09:20:55.057Z,4408.00
2018-09-29T09:21:55.071Z,4180.00
2018-09-29T09:22:55.097Z,4048.00
2018-09-29T09:23:55.115Z,4016.00
2018-09-29T09:24:55.126Z,4028.00
2018-09-29T09:25:55.150Z,4068.00
2018-09-29T09:26:55.164Z,4116.00
2018-09-29T09:27:55.188Z,4024.00
2018-09-29T09:28:55.204Z,3824.00
2018-09-29T09:29:55.253Z,3776.00
2018-09-29T09:30:55.242Z,3712.00
2018-09-29T09:31:55.257Z,4028.00
2018-09-29T09:32:55.269Z,4244.00
2018-09-29T09:33:55.295Z,4324.00
2018-09-29T09:34:55.309Z,4408.00
2018-09-29T09:35:55.327Z,4400.00
2018-09-29T09:36:55.348Z,4348.00
2018-09-29T09:37:55.364Z,4212.00
2018-09-29T09:38:55.375Z,4120.00
2018-09-29T09:39:55.401Z,4040.00
2018-09-29T09:40:55.415Z,4024.00
2018-09-29T09:41:55.442Z,4024.00
2018-09-29T09:42:55.454Z,4040.00
2018-09-29T09:43:55.468Z,4100.00
2018-09-29T09:44:55.495Z,4304.00
2018-09-29T09:45:55.508Z,4376.00
2018-09-29T09:46:55.522Z,4456.00
2018-09-29T09:47:55.547Z,4480.00
2018-09-29T09:48:55.561Z,4368.00
2018-09-29T09:49:55.586Z,4536.00
2018-09-29T09:50:55.601Z,4396.00
2018-09-29T09:51:55.626Z,4352.00
2018-09-29T09:52:55.639Z,4288.00
2018-09-29T09:53:55.654Z,4272.00
2018-09-29T09:54:55.667Z,4544.00
2018-09-29T09:55:55.711Z,4500.00
2018-09-29T09:56:55.711Z,4460.00
2018-09-29T09:57:55.732Z,4456.00
2018-09-29T09:58:55.746Z,4436.00
2018-09-29T09:59:55.760Z,4412.00
2018-09-29T10:00:55.785Z,4488.00
2018-09-29T10:01:55.800Z,4736.00
2018-09-29T10:02:55.824Z,5008.00
2018-09-29T10:03:55.838Z,5104.00
2018-09-29T10:04:55.852Z,4968.00
2018-09-29T10:05:55.877Z,5080.00
2018-09-29T10:06:55.892Z,5404.00
2018-09-29T10:07:55.918Z,5532.00
2018-09-29T10:08:55.931Z,6128.00
2018-09-29T10:09:55.947Z,6428.00
2018-09-29T10:10:55.970Z,6272.00
2018-09-29T10:11:55.984Z,6420.00
2018-09-29T10:12:56.011Z,6116.00
2018-09-29T10:13:56.024Z,6100.00
2018-09-29T10:14:56.037Z,5700.00
2018-09-29T10:15:56.063Z,5404.00
2018-09-29T10:16:56.078Z,5332.00
2018-09-29T10:17:56.103Z,5348.00
2018-09-29T10:18:56.115Z,5612.00
2018-09-29T10:19:56.143Z,6196.00
2018-09-29T10:20:56.156Z,7176.00
2018-09-29T10:21:56.182Z,8348.00
2018-09-29T10:22:56.195Z,9196.00
2018-09-29T10:23:56.209Z,9888.00
2018-09-29T10:24:56.236Z,9540.00
2018-09-29T10:25:56.261Z,8048.00
2018-09-29T10:26:56.274Z,7064.00
2018-09-29T10:27:56.289Z,6516.00
2018-09-29T10:28:56.314Z,5648.00
2018-09-29T10:29:56.327Z,5164.00
2018-09-29T10:30:56.353Z,4976.00
2018-09-29T10:31:56.371Z,5004.00
2018-09-29T10:32:56.392Z,4968.00
2018-09-29T10:33:56.406Z,5032.00
2018-09-29T10:34:56.420Z,5296.00
2018-09-29T10:35:56.445Z,5512.00
2018-09-29T10:36:56.458Z,6236.00
2018-09-29T10:37:56.484Z,6824.00
2018-09-29T10:38:56.499Z,7168.00
2018-09-29T10:39:56.524Z,7280.00
2018-09-29T10:40:56.538Z,7324.00
2018-09-29T10:41:56.564Z,7928.00
2018-09-29T10:42:56.578Z,7596.00
2018-09-29T10:43:56.604Z,6724.00
2018-09-29T10:44:56.617Z,6092.00
2018-09-29T10:45:56.642Z,5604.00
2018-09-29T10:46:56.657Z,5180.00
2018-09-29T10:47:56.682Z,5188.00
2018-09-29T10:48:56.696Z,5580.00
2018-09-29T10:49:56.723Z,5596.00
2018-09-29T10:50:56.736Z,5636.00
2018-09-29T10:51:56.749Z,6132.00
2018-09-29T10:52:56.906Z,7456.00
2018-09-29T10:53:56.794Z,9292.00
2018-09-29T10:54:56.815Z,11428.00
2018-09-29T10:55:56.827Z,12736.00
2018-09-29T10:56:56.853Z,13252.00
2018-09-29T10:57:56.868Z,13208.00
2018-09-29T10:58:56.915Z,12772.00
2018-09-29T10:59:56.909Z,12428.00
2018-09-29T11:00:56.933Z,11584.00
2018-09-29T11:01:56.947Z,11164.00
2018-09-29T11:02:56.973Z,10816.00
2018-09-29T11:03:56.985Z,10988.00
2018-09-29T11:04:57.061Z,10292.00
2018-09-29T11:05:57.026Z,9664.00
2018-09-29T11:06:57.056Z,8964.00
2018-09-29T11:07:57.065Z,8492.00
2018-09-29T11:08:57.090Z,6660.00
2018-09-29T11:09:57.104Z,6396.00
2018-09-29T11:10:57.130Z,6636.00
2018-09-29T11:11:57.156Z,7792.00
2018-09-29T11:12:57.169Z,8556.00
2018-09-29T11:13:57.196Z,9192.00
2018-09-29T11:14:57.211Z,9496.00
2018-09-29T11:15:57.240Z,9052.00
2018-09-29T11:16:57.248Z,8780.00
2018-09-29T11:17:57.275Z,8196.00
2018-09-29T11:18:57.289Z,8060.00
2018-09-29T11:19:57.315Z,8908.00
2018-09-29T11:20:57.387Z,9548.00
2018-09-29T11:21:57.354Z,10228.00
2018-09-29T11:22:57.367Z,11228.00
2018-09-29T11:23:57.394Z,11740.00
2018-09-29T11:24:57.407Z,12472.00
2018-09-29T11:25:57.446Z,13620.00
2018-09-29T11:26:57.459Z,14260.00
2018-09-29T11:27:57.473Z,14340.00
2018-09-29T11:28:57.499Z,13780.00
2018-09-29T11:29:57.513Z,12768.00
2018-09-29T11:30:57.538Z,12060.00
2018-09-29T11:31:57.554Z,11816.00
2018-09-29T11:32:57.577Z,12652.00
2018-09-29T11:33:57.611Z,13452.00
2018-09-29T11:34:57.618Z,13436.00
2018-09-29T11:35:57.632Z,11072.00
2018-09-29T11:36:57.657Z,9960.00
2018-09-29T11:37:57.682Z,9340.00
2018-09-29T11:38:57.696Z,8452.00
2018-09-29T11:39:57.735Z,8104.00
2018-09-29T11:40:57.739Z,7768.00
2018-09-29T11:41:57.762Z,7876.00
2018-09-29T11:42:57.787Z,8240.00
2018-09-29T11:43:57.805Z,8552.00
2018-09-29T11:44:57.829Z,9084.00
2018-09-29T11:45:57.841Z,9588.00
2018-09-29T11:46:57.870Z,9220.00
2018-09-29T11:47:57.893Z,8940.00
2018-09-29T11:48:57.905Z,8780.00
2018-09-29T11:49:57.932Z,8372.00
2018-09-29T11:50:57.946Z,8540.00
2018-09-29T11:51:57.972Z,8836.00
2018-09-29T11:52:57.985Z,8276.00
2018-09-29T11:53:58.010Z,7808.00
2018-09-29T11:54:58.038Z,7324.00
2018-09-29T11:55:58.050Z,7468.00
2018-09-29T11:56:58.082Z,7540.00
2018-09-29T11:57:58.102Z,7100.00
2018-09-29T11:58:58.116Z,7116.00
2018-09-29T11:59:58.130Z,6972.00
2018-09-29T12:00:58.158Z,6756.00
2018-09-29T12:01:58.237Z,6428.00
2018-09-29T12:02:58.194Z,6164.00
2018-09-29T12:03:58.220Z,6300.00
2018-09-29T12:04:58.235Z,6572.00
2018-09-29T12:05:58.301Z,6740.00
2018-09-29T12:06:58.289Z,6760.00
2018-09-29T12:07:58.317Z,6784.00
2018-09-29T12:08:58.325Z,6876.00
2018-09-29T12:09:58.343Z,6872.00
2018-09-29T12:10:58.365Z,7160.00
2018-09-29T12:11:58.378Z,7456.00
2018-09-29T12:12:58.405Z,7728.00
2018-09-29T12:13:58.442Z,7660.00
2018-09-29T12:14:58.445Z,7396.00
2018-09-29T12:15:58.471Z,6804.00
2018-09-29T12:16:58.483Z,6184.00
2018-09-29T12:17:58.509Z,5972.00
2018-09-29T12:18:58.523Z,6076.00
2018-09-29T12:19:58.550Z,6068.00
2018-09-29T12:20:58.576Z,6120.00
2018-09-29T12:21:58.589Z,5472.00
2018-09-29T12:22:58.614Z,4996.00
2018-09-29T12:23:58.629Z,5004.00
2018-09-29T12:24:58.655Z,5064.00
2018-09-29T12:25:58.668Z,5068.00
2018-09-29T12:26:58.694Z,4984.00
2018-09-29T12:27:58.719Z,4408.00
2018-09-29T12:28:58.736Z,4452.00
2018-09-29T12:29:58.823Z,4196.00
2018-09-29T12:30:58.772Z,4352.00
2018-09-29T12:31:58.798Z,3952.00
2018-09-29T12:32:58.813Z,3856.00